• Join FlightAware (Why Join?)
  • Login
  • US Flag 
04:21PM EDT


 

Airport Tracker/Info


-or-


 

Live Flight TrackerFlight Track Log ✈ KAP46 ✈ 16-Aug-2013 ✈ KALB - KMSS

Flight Track Log - Related Links

Times and Time Zones

All times are in EDT time to prevent confusion due to time zone crossing. See the KAP46 flight status page for this flight to view local times or setup timezone preferences in your user account.

Time Position Orientation Groundspeed Altitude Reporting Facility
EDT Latitude Longitude Course Direction KTS MPH feet Rate Location/Type
06:46PM 42.7922 -73.8122 354° North 114 131 1,600  Level Boston Center
06:48PM 42.8275 -73.8386 331° Northwest 120 138 2,100 420 Climbing Boston Center
06:49PM 42.8583 -73.8592 334° Northwest 126 145 2,600 480 Climbing Boston Center
06:50PM 42.8917 -73.8683 349° North 124 143 3,100 420 Climbing Boston Center
06:50PM 42.9144 -73.8744 349° North 126 145 3,400 420 Climbing Boston Center
06:51PM 42.9497 -73.8783 355° North 134 154 3,800 480 Climbing Boston Center
06:53PM 42.9953 -73.9106 333° Northwest 121 139 4,600 540 Climbing Boston Center
06:54PM 43.0283 -73.9256 342° North 128 147 5,200 540 Climbing Boston Center
06:55PM 43.0617 -73.9378 345° North 132 152 5,800 600 Climbing Boston Center
06:56PM 43.0969 -73.9528 343° North 131 151 6,400 540 Climbing Boston Center
06:57PM 43.1322 -73.9678 343° North 131 151 6,900 420 Climbing Boston Center
06:57PM 43.1592 -73.9769 346° North 140 161 7,200 480 Climbing Boston Center
06:58PM 43.1903 -73.9892 344° North 153 176 7,700 420 Climbing Boston Center
06:59PM 43.2294 -74.0131 336° Northwest 147 169 8,100 180 Climbing Boston Center
07:00PM 43.2689 -74.0256 347° North 155 178 8,100  Level Boston Center
07:01PM 43.3167 -74.0381 349° North 160 184 8,100 -60 Level Boston Center
07:02PM 43.3581 -74.0536 345° North 165 190 8,000  Descending Boston Center
07:03PM 43.3975 -74.0744 339° North 159 183 8,100  Climbing Boston Center
07:04PM 43.4389 -74.0872 347° North 159 183 8,100  Level Boston Center
07:05PM 43.4822 -74.1111 338° Northwest 153 176 8,100  Level Boston Center
07:06PM 43.5239 -74.1267 345° North 148 170 8,100  Level Boston Center
07:07PM 43.5672 -74.1422 345° North 148 170 8,100  Level Boston Center
07:08PM 43.6067 -74.1606 341° North 148 170 8,100  Level Boston Center
07:09PM 43.6481 -74.1789 342° North 148 170 8,100  Level Boston Center
07:10PM 43.6894 -74.1972 342° North 148 170 8,100  Level Boston Center
07:11PM 43.7331 -74.2131 345° North 148 170 8,200 -120 Climbing Boston Center
07:12PM 43.7681 -74.2397 331° Northwest 148 170 7,900 -120 Descending Boston Center
07:13PM 43.8069 -74.2697 331° Northwest 153 176 8,000  Climbing Boston Center
07:14PM 43.8506 -74.2942 338° Northwest 158 182 8,000  Level Boston Center
07:15PM 43.8875 -74.3183 335° Northwest 152 175 8,000  Level Boston Center
07:16PM 43.9267 -74.3425 336° Northwest 152 175 8,000  Level Boston Center
07:17PM 43.9661 -74.3642 338° Northwest 152 175 8,000  Level Boston Center
07:18PM 44.0072 -74.3883 337° Northwest 152 175 8,000  Level Boston Center
07:19PM 44.0486 -74.4072 342° North 152 175 8,000  Level Boston Center
07:20PM 44.0900 -74.4231 345° North 152 175 8,000  Level Boston Center
07:21PM 44.1356 -74.4389 346° North 152 175 8,000  Level Boston Center
07:22PM 44.1792 -74.4578 343° North 157 181 8,000  Level Boston Center
07:23PM 44.2206 -74.4736 345° North 157 181 8,000  Level Boston Center
07:24PM 44.2639 -74.4925 343° North 157 181 8,000  Level Boston Center
07:25PM 44.3072 -74.5086 345° North 157 181 8,000  Level Boston Center
07:26PM 44.3467 -74.5244 344° North 157 181 8,000 -240 Level Boston Center
07:27PM 44.3919 -74.5492 339° North 157 181 7,600 -480 Descending Boston Center
07:28PM 44.4417 -74.5714 342° North 168 193 7,100 -540 Descending Boston Center
07:29PM 44.4911 -74.5936 342° North 173 199 6,600 -600 Descending Boston Center
07:30PM 44.5367 -74.6214 337° Northwest 178 205 6,000 -360 Descending Boston Center
07:31PM 44.5797 -74.6492 335° Northwest 178 205 5,900 -60 Descending Boston Center
07:32PM 44.6233 -74.6656 345° North 171 197 5,900 -180 Level Boston Center
07:33PM 44.6667 -74.6875 340° North 166 191 5,600 -420 Descending Boston Center
07:34PM 44.7119 -74.7128 338° Northwest 166 191 5,100 -300 Descending Boston Center
07:35PM 44.7489 -74.7375 335° Northwest 166 191 5,000 -120 Descending Boston Center